sensor_id;sensor_type;location;lat;lon;timestamp;temperature;humidity
3504;DHT22;1766;53.490;10.174;2024-01-15T00:00:52;8.20;53.40
3504;DHT22;1766;53.490;10.174;2024-01-15T00:02:53;8.20;53.40
3504;DHT22;1766;53.490;10.174;2024-01-15T00:04:55;8.20;53.50
3504;DHT22;1766;53.490;10.174;2024-01-15T00:06:57;8.20;53.40
3504;DHT22;1766;53.490;10.174;2024-01-15T00:08:59;8.20;53.40
3504;DHT22;1766;53.490;10.174;2024-01-15T00:11:01;8.10;53.20
3504;DHT22;1766;53.490;10.174;2024-01-15T00:13:03;8.20;53.40
3504;DHT22;1766;53.490;10.174;2024-01-15T00:15:06;8.20;53.40
3504;DHT22;1766;53.490;10.174;2024-01-15T00:17:08;8.20;53.50
3504;DHT22;1766;53.490;10.174;2024-01-15T00:19:10;8.20;53.40
3504;DHT22;1766;53.490;10.174;2024-01-15T00:21:12;6.70;52.30
3504;DHT22;1766;53.490;10.174;2024-01-15T00:23:14;8.20;53.40
3504;DHT22;1766;53.490;10.174;2024-01-15T00:25:16;8.20;53.40
3504;DHT22;1766;53.490;10.174;2024-01-15T00:27:19;8.20;53.20
3504;DHT22;1766;53.490;10.174;2024-01-15T00:29:21;8.20;53.30
3504;DHT22;1766;53.490;10.174;2024-01-15T00:31:22;8.20;53.20
3504;DHT22;1766;53.490;10.174;2024-01-15T00:33:24;8.10;53.00
3504;DHT22;1766;53.490;10.174;2024-01-15T00:35:25;8.10;53.00
3504;DHT22;1766;53.490;10.174;2024-01-15T00:37:27;8.00;53.10
3504;DHT22;1766;53.490;10.174;2024-01-15T00:39:28;8.00;53.10
3504;DHT22;1766;53.490;10.174;2024-01-15T00:41:30;8.00;53.20
3504;DHT22;1766;53.490;10.174;2024-01-15T00:43:32;7.90;53.10
3504;DHT22;1766;53.490;10.174;2024-01-15T00:45:35;7.90;53.30
3504;DHT22;1766;53.490;10.174;2024-01-15T00:47:36;7.90;53.30
3504;DHT22;1766;53.490;10.174;2024-01-15T00:49:38;8.00;53.40
3504;DHT22;1766;53.490;10.174;2024-01-15T00:51:40;8.00;53.50
3504;DHT22;1766;53.490;10.174;2024-01-15T00:53:42;8.00;53.50
3504;DHT22;1766;53.490;10.174;2024-01-15T00:55:43;8.00;53.40
3504;DHT22;1766;53.490;10.174;2024-01-15T00:57:45;8.00;53.40
3504;DHT22;1766;53.490;10.174;2024-01-15T00:59:48;8.00;53.40
3504;DHT22;1766;53.490;10.174;2024-01-15T01:01:50;8.10;53.50
3504;DHT22;1766;53.490;10.174;2024-01-15T01:03:52;8.10;53.40
3504;DHT22;1766;53.490;10.174;2024-01-15T01:05:53;8.10;53.40
3504;DHT22;1766;53.490;10.174;2024-01-15T01:07:54;8.00;53.40
3504;DHT22;1766;53.490;10.174;2024-01-15T01:09:56;8.10;53.40
3504;DHT22;1766;53.490;10.174;2024-01-15T01:11:57;8.00;53.40
3504;DHT22;1766;53.490;10.174;2024-01-15T01:13:59;8.00;53.40
3504;DHT22;1766;53.490;10.174;2024-01-15T01:16:03;8.00;53.40
3504;DHT22;1766;53.490;10.174;2024-01-15T01:18:05;8.00;53.30
3504;DHT22;1766;53.490;10.174;2024-01-15T01:20:08;8.00;53.30
3504;DHT22;1766;53.490;10.174;2024-01-15T01:22:11;7.90;53.40
3504;DHT22;1766;53.490;10.174;2024-01-15T01:24:12;7.90;53.40
3504;DHT22;1766;53.490;10.174;2024-01-15T01:26:15;7.90;53.40
3504;DHT22;1766;53.490;10.174;2024-01-15T01:28:18;7.90;53.50
3504;DHT22;1766;53.490;10.174;2024-01-15T01:30:19;8.00;53.60
3504;DHT22;1766;53.490;10.174;2024-01-15T01:32:22;8.00;53.60
3504;DHT22;1766;53.490;10.174;2024-01-15T01:34:24;8.00;53.60
3504;DHT22;1766;53.490;10.174;2024-01-15T01:36:25;8.10;53.70
3504;DHT22;1766;53.490;10.174;2024-01-15T01:38:27;8.20;53.80
3504;DHT22;1766;53.490;10.174;2024-01-15T01:40:29;8.10;53.70
3504;DHT22;1766;53.490;10.174;2024-01-15T01:42:31;8.20;53.70
3504;DHT22;1766;53.490;10.174;2024-01-15T01:44:33;8.20;53.70
3504;DHT22;1766;53.490;10.174;2024-01-15T01:46:36;8.30;53.70
3504;DHT22;1766;53.490;10.174;2024-01-15T01:48:41;8.30;53.80
3504;DHT22;1766;53.490;10.174;2024-01-15T01:50:43;8.30;53.60
3504;DHT22;1766;53.490;10.174;2024-01-15T01:52:45;8.30;53.70
3504;DHT22;1766;53.490;10.174;2024-01-15T01:54:47;8.30;53.60
3504;DHT22;1766;53.490;10.174;2024-01-15T01:56:50;8.30;53.70
3504;DHT22;1766;53.490;10.174;2024-01-15T01:58:52;8.30;53.70
3504;DHT22;1766;53.490;10.174;2024-01-15T02:00:55;8.30;53.70
3504;DHT22;1766;53.490;10.174;2024-01-15T02:02:57;8.40;53.80
3504;DHT22;1766;53.490;10.174;2024-01-15T02:05:00;8.40;53.80
3504;DHT22;1766;53.490;10.174;2024-01-15T02:07:02;8.40;53.70
3504;DHT22;1766;53.490;10.174;2024-01-15T02:09:04;8.50;53.80
3504;DHT22;1766;53.490;10.174;2024-01-15T02:11:06;8.50;53.70
3504;DHT22;1766;53.490;10.174;2024-01-15T02:13:08;8.50;54.20
3504;DHT22;1766;53.490;10.174;2024-01-15T02:15:10;8.60;53.70
3504;DHT22;1766;53.490;10.174;2024-01-15T02:17:13;8.50;53.60
3504;DHT22;1766;53.490;10.174;2024-01-15T02:19:15;8.50;53.60
3504;DHT22;1766;53.490;10.174;2024-01-15T02:21:19;8.40;53.50
3504;DHT22;1766;53.490;10.174;2024-01-15T02:23:22;8.50;53.60
3504;DHT22;1766;53.490;10.174;2024-01-15T02:25:23;8.40;53.30
3504;DHT22;1766;53.490;10.174;2024-01-15T02:27:25;8.40;53.30
3504;DHT22;1766;53.490;10.174;2024-01-15T02:29:27;8.30;53.30
3504;DHT22;1766;53.490;10.174;2024-01-15T02:31:29;8.30;53.40
3504;DHT22;1766;53.490;10.174;2024-01-15T02:33:31;8.30;53.40
3504;DHT22;1766;53.490;10.174;2024-01-15T02:35:33;8.20;53.30
3504;DHT22;1766;53.490;10.174;2024-01-15T02:37:34;8.20;53.20
3504;DHT22;1766;53.490;10.174;2024-01-15T02:39:37;8.20;53.30
3504;DHT22;1766;53.490;10.174;2024-01-15T02:41:39;8.20;53.30
3504;DHT22;1766;53.490;10.174;2024-01-15T02:43:41;8.10;53.20
3504;DHT22;1766;53.490;10.174;2024-01-15T02:45:42;8.10;53.30
3504;DHT22;1766;53.490;10.174;2024-01-15T02:47:44;8.10;53.30
3504;DHT22;1766;53.490;10.174;2024-01-15T02:49:45;8.10;53.30
3504;DHT22;1766;53.490;10.174;2024-01-15T02:51:47;8.10;53.40
3504;DHT22;1766;53.490;10.174;2024-01-15T02:53:49;8.10;53.60
3504;DHT22;1766;53.490;10.174;2024-01-15T02:55:52;8.20;53.80
3504;DHT22;1766;53.490;10.174;2024-01-15T02:57:54;8.20;53.50
3504;DHT22;1766;53.490;10.174;2024-01-15T02:59:56;8.30;53.70
3504;DHT22;1766;53.490;10.174;2024-01-15T03:01:57;8.30;53.70
3504;DHT22;1766;53.490;10.174;2024-01-15T03:03:58;8.40;53.70
3504;DHT22;1766;53.490;10.174;2024-01-15T03:06:00;8.40;53.70
3504;DHT22;1766;53.490;10.174;2024-01-15T03:08:03;8.40;53.80
3504;DHT22;1766;53.490;10.174;2024-01-15T03:10:06;8.40;53.80
3504;DHT22;1766;53.490;10.174;2024-01-15T03:14:11;8.50;53.80
3504;DHT22;1766;53.490;10.174;2024-01-15T03:16:13;8.40;53.70
3504;DHT22;1766;53.490;10.174;2024-01-15T03:18:15;8.40;53.70
3504;DHT22;1766;53.490;10.174;2024-01-15T03:20:16;8.50;53.80
3504;DHT22;1766;53.490;10.174;2024-01-15T03:22:18;8.40;53.70
3504;DHT22;1766;53.490;10.174;2024-01-15T03:24:20;8.50;53.80
3504;DHT22;1766;53.490;10.174;2024-01-15T03:26:22;8.40;53.70
3504;DHT22;1766;53.490;10.174;2024-01-15T03:28:24;8.50;54.40
3504;DHT22;1766;53.490;10.174;2024-01-15T03:30:27;8.50;53.80
3504;DHT22;1766;53.490;10.174;2024-01-15T03:32:29;8.50;53.80
3504;DHT22;1766;53.490;10.174;2024-01-15T03:34:31;8.50;53.90
3504;DHT22;1766;53.490;10.174;2024-01-15T03:36:33;8.50;53.90
3504;DHT22;1766;53.490;10.174;2024-01-15T03:38:34;8.50;53.80
3504;DHT22;1766;53.490;10.174;2024-01-15T03:40:36;8.50;53.80
3504;DHT22;1766;53.490;10.174;2024-01-15T03:42:37;9.50;54.60
3504;DHT22;1766;53.490;10.174;2024-01-15T03:44:39;8.50;53.90
3504;DHT22;1766;53.490;10.174;2024-01-15T03:46:42;8.50;53.80
3504;DHT22;1766;53.490;10.174;2024-01-15T03:48:44;8.50;53.80
3504;DHT22;1766;53.490;10.174;2024-01-15T03:50:46;8.50;53.80
3504;DHT22;1766;53.490;10.174;2024-01-15T03:52:48;8.50;53.80
3504;DHT22;1766;53.490;10.174;2024-01-15T03:54:50;8.40;53.60
3504;DHT22;1766;53.490;10.174;2024-01-15T03:56:52;8.40;53.60
3504;DHT22;1766;53.490;10.174;2024-01-15T03:58:54;8.40;53.70
3504;DHT22;1766;53.490;10.174;2024-01-15T04:00:55;8.40;53.70
3504;DHT22;1766;53.490;10.174;2024-01-15T04:02:58;8.40;53.70
3504;DHT22;1766;53.490;10.174;2024-01-15T04:04:59;8.40;53.70
3504;DHT22;1766;53.490;10.174;2024-01-15T04:07:01;8.40;53.80
3504;DHT22;1766;53.490;10.174;2024-01-15T04:09:03;8.40;53.70
3504;DHT22;1766;53.490;10.174;2024-01-15T04:11:05;8.40;53.80
3504;DHT22;1766;53.490;10.174;2024-01-15T04:13:06;8.50;53.90
3504;DHT22;1766;53.490;10.174;2024-01-15T04:15:08;8.40;53.80
3504;DHT22;1766;53.490;10.174;2024-01-15T04:17:10;8.40;53.70
3504;DHT22;1766;53.490;10.174;2024-01-15T04:19:13;8.40;53.70
3504;DHT22;1766;53.490;10.174;2024-01-15T04:21:17;8.50;53.90
3504;DHT22;1766;53.490;10.174;2024-01-15T04:23:19;8.40;53.80
3504;DHT22;1766;53.490;10.174;2024-01-15T04:25:21;8.40;53.70
3504;DHT22;1766;53.490;10.174;2024-01-15T04:27:23;8.50;53.90
3504;DHT22;1766;53.490;10.174;2024-01-15T04:29:24;8.50;53.80
3504;DHT22;1766;53.490;10.174;2024-01-15T04:31:25;8.50;53.90
3504;DHT22;1766;53.490;10.174;2024-01-15T04:33:28;8.50;53.90
3504;DHT22;1766;53.490;10.174;2024-01-15T04:35:31;8.50;53.80
3504;DHT22;1766;53.490;10.174;2024-01-15T04:37:34;8.50;54.00
3504;DHT22;1766;53.490;10.174;2024-01-15T04:39:35;8.50;53.90
3504;DHT22;1766;53.490;10.174;2024-01-15T04:41:37;8.50;53.90
3504;DHT22;1766;53.490;10.174;2024-01-15T04:43:38;8.60;53.90
3504;DHT22;1766;53.490;10.174;2024-01-15T04:45:40;8.60;53.80
3504;DHT22;1766;53.490;10.174;2024-01-15T04:47:42;8.60;53.80
3504;DHT22;1766;53.490;10.174;2024-01-15T04:49:44;8.60;53.70
3504;DHT22;1766;53.490;10.174;2024-01-15T04:51:47;8.60;53.80
3504;DHT22;1766;53.490;10.174;2024-01-15T04:53:49;8.60;53.80
3504;DHT22;1766;53.490;10.174;2024-01-15T04:55:51;8.60;53.80
3504;DHT22;1766;53.490;10.174;2024-01-15T04:57:53;8.50;53.70
3504;DHT22;1766;53.490;10.174;2024-01-15T04:59:55;8.50;53.70
3504;DHT22;1766;53.490;10.174;2024-01-15T05:01:56;8.50;53.70
3504;DHT22;1766;53.490;10.174;2024-01-15T05:03:58;8.60;53.80
3504;DHT22;1766;53.490;10.174;2024-01-15T05:06:00;8.60;53.80
3504;DHT22;1766;53.490;10.174;2024-01-15T05:08:04;8.50;53.70
3504;DHT22;1766;53.490;10.174;2024-01-15T05:10:07;8.60;53.80
3504;DHT22;1766;53.490;10.174;2024-01-15T05:12:09;8.60;53.80
3504;DHT22;1766;53.490;10.174;2024-01-15T05:14:11;8.50;53.70
3504;DHT22;1766;53.490;10.174;2024-01-15T05:16:13;8.60;53.80
3504;DHT22;1766;53.490;10.174;2024-01-15T05:18:16;8.60;53.90
3504;DHT22;1766;53.490;10.174;2024-01-15T05:20:18;8.70;54.00
3504;DHT22;1766;53.490;10.174;2024-01-15T05:22:20;8.60;53.70
3504;DHT22;1766;53.490;10.174;2024-01-15T05:24:23;8.70;53.70
3504;DHT22;1766;53.490;10.174;2024-01-15T05:26:26;8.70;53.80
3504;DHT22;1766;53.490;10.174;2024-01-15T05:28:28;8.70;53.70
3504;DHT22;1766;53.490;10.174;2024-01-15T05:30:31;8.70;53.70
3504;DHT22;1766;53.490;10.174;2024-01-15T05:32:32;8.70;53.70
3504;DHT22;1766;53.490;10.174;2024-01-15T05:34:34;8.70;53.80
3504;DHT22;1766;53.490;10.174;2024-01-15T05:36:35;8.70;53.70
3504;DHT22;1766;53.490;10.174;2024-01-15T05:38:37;8.70;53.70
3504;DHT22;1766;53.490;10.174;2024-01-15T05:40:40;8.70;53.60
3504;DHT22;1766;53.490;10.174;2024-01-15T05:42:42;8.70;53.40
3504;DHT22;1766;53.490;10.174;2024-01-15T05:44:44;8.70;53.40
3504;DHT22;1766;53.490;10.174;2024-01-15T05:46:46;8.70;53.30
3504;DHT22;1766;53.490;10.174;2024-01-15T05:48:48;8.60;53.20
3504;DHT22;1766;53.490;10.174;2024-01-15T05:50:50;8.60;53.30
3504;DHT22;1766;53.490;10.174;2024-01-15T05:52:52;8.60;53.40
3504;DHT22;1766;53.490;10.174;2024-01-15T05:54:54;8.50;53.40
3504;DHT22;1766;53.490;10.174;2024-01-15T05:56:57;8.50;53.40
3504;DHT22;1766;53.490;10.174;2024-01-15T05:58:58;8.50;53.40
3504;DHT22;1766;53.490;10.174;2024-01-15T06:01:00;8.50;53.40
3504;DHT22;1766;53.490;10.174;2024-01-15T06:03:02;8.40;53.40
3504;DHT22;1766;53.490;10.174;2024-01-15T06:05:04;8.50;53.50
3504;DHT22;1766;53.490;10.174;2024-01-15T06:07:06;8.50;53.50
3504;DHT22;1766;53.490;10.174;2024-01-15T06:09:08;8.50;53.40
3504;DHT22;1766;53.490;10.174;2024-01-15T06:11:10;8.50;53.40
3504;DHT22;1766;53.490;10.174;2024-01-15T06:13:13;8.50;53.40
3504;DHT22;1766;53.490;10.174;2024-01-15T06:15:15;8.50;53.50
3504;DHT22;1766;53.490;10.174;2024-01-15T06:17:17;8.50;53.50
3504;DHT22;1766;53.490;10.174;2024-01-15T06:19:19;8.50;53.50
3504;DHT22;1766;53.490;10.174;2024-01-15T06:21:21;8.50;53.50
3504;DHT22;1766;53.490;10.174;2024-01-15T06:23:23;8.50;53.50
3504;DHT22;1766;53.490;10.174;2024-01-15T06:25:25;8.50;53.50
3504;DHT22;1766;53.490;10.174;2024-01-15T06:27:27;8.50;53.40
3504;DHT22;1766;53.490;10.174;2024-01-15T06:29:30;8.50;53.40
3504;DHT22;1766;53.490;10.174;2024-01-15T06:31:32;8.50;53.50
3504;DHT22;1766;53.490;10.174;2024-01-15T06:33:33;8.50;53.50
3504;DHT22;1766;53.490;10.174;2024-01-15T06:35:35;8.60;53.60
3504;DHT22;1766;53.490;10.174;2024-01-15T06:37:37;8.50;53.50
3504;DHT22;1766;53.490;10.174;2024-01-15T06:39:39;8.60;53.60
3504;DHT22;1766;53.490;10.174;2024-01-15T06:41:41;8.60;53.50
3504;DHT22;1766;53.490;10.174;2024-01-15T06:43:45;8.60;53.50
3504;DHT22;1766;53.490;10.174;2024-01-15T06:45:54;8.60;53.60
3504;DHT22;1766;53.490;10.174;2024-01-15T06:47:56;8.60;53.50
3504;DHT22;1766;53.490;10.174;2024-01-15T06:49:58;8.60;53.50
3504;DHT22;1766;53.490;10.174;2024-01-15T06:52:00;8.60;53.40
3504;DHT22;1766;53.490;10.174;2024-01-15T06:54:20;8.60;53.50
3504;DHT22;1766;53.490;10.174;2024-01-15T06:56:25;8.60;53.60
3504;DHT22;1766;53.490;10.174;2024-01-15T06:58:28;8.60;53.60
3504;DHT22;1766;53.490;10.174;2024-01-15T07:00:29;8.70;53.60
3504;DHT22;1766;53.490;10.174;2024-01-15T07:02:32;8.70;53.50
3504;DHT22;1766;53.490;10.174;2024-01-15T07:04:34;8.70;53.50
3504;DHT22;1766;53.490;10.174;2024-01-15T07:06:35;8.70;53.50
3504;DHT22;1766;53.490;10.174;2024-01-15T07:08:37;8.70;53.50
3504;DHT22;1766;53.490;10.174;2024-01-15T07:10:39;8.70;53.60
3504;DHT22;1766;53.490;10.174;2024-01-15T07:12:42;8.70;53.50
3504;DHT22;1766;53.490;10.174;2024-01-15T07:14:44;8.70;53.50
3504;DHT22;1766;53.490;10.174;2024-01-15T07:16:46;8.70;53.40
3504;DHT22;1766;53.490;10.174;2024-01-15T07:18:48;8.70;53.40
3504;DHT22;1766;53.490;10.174;2024-01-15T07:20:50;8.70;53.40
3504;DHT22;1766;53.490;10.174;2024-01-15T07:22:52;8.70;53.40
3504;DHT22;1766;53.490;10.174;2024-01-15T07:24:55;8.90;53.50
3504;DHT22;1766;53.490;10.174;2024-01-15T07:26:57;8.70;53.30
3504;DHT22;1766;53.490;10.174;2024-01-15T07:28:58;8.70;53.20
3504;DHT22;1766;53.490;10.174;2024-01-15T07:31:00;8.70;53.20
3504;DHT22;1766;53.490;10.174;2024-01-15T07:33:04;8.70;53.30
3504;DHT22;1766;53.490;10.174;2024-01-15T07:35:07;8.70;53.20
3504;DHT22;1766;53.490;10.174;2024-01-15T07:37:10;8.70;53.20
3504;DHT22;1766;53.490;10.174;2024-01-15T07:39:12;8.70;53.30
3504;DHT22;1766;53.490;10.174;2024-01-15T07:41:15;8.70;53.30
3504;DHT22;1766;53.490;10.174;2024-01-15T07:43:17;8.80;53.30
3504;DHT22;1766;53.490;10.174;2024-01-15T07:45:19;8.70;53.00
3504;DHT22;1766;53.490;10.174;2024-01-15T07:47:21;8.70;53.10
3504;DHT22;1766;53.490;10.174;2024-01-15T07:49:23;8.80;53.20
3504;DHT22;1766;53.490;10.174;2024-01-15T07:51:26;8.80;53.20
3504;DHT22;1766;53.490;10.174;2024-01-15T07:53:27;8.80;53.10
3504;DHT22;1766;53.490;10.174;2024-01-15T07:55:29;8.80;53.20
3504;DHT22;1766;53.490;10.174;2024-01-15T07:57:31;8.80;53.10
3504;DHT22;1766;53.490;10.174;2024-01-15T07:59:33;8.80;53.00
3504;DHT22;1766;53.490;10.174;2024-01-15T08:01:36;8.80;53.10
3504;DHT22;1766;53.490;10.174;2024-01-15T08:03:38;8.90;52.90
3504;DHT22;1766;53.490;10.174;2024-01-15T08:05:40;8.90;53.00
3504;DHT22;1766;53.490;10.174;2024-01-15T08:07:43;8.90;52.80
3504;DHT22;1766;53.490;10.174;2024-01-15T08:09:45;8.90;52.90
3504;DHT22;1766;53.490;10.174;2024-01-15T08:11:48;9.00;53.10
3504;DHT22;1766;53.490;10.174;2024-01-15T08:13:50;8.90;52.80
3504;DHT22;1766;53.490;10.174;2024-01-15T08:15:52;9.00;52.80
3504;DHT22;1766;53.490;10.174;2024-01-15T08:17:54;9.00;52.70
3504;DHT22;1766;53.490;10.174;2024-01-15T08:19:56;9.00;52.60
3504;DHT22;1766;53.490;10.174;2024-01-15T08:21:58;9.00;52.70
3504;DHT22;1766;53.490;10.174;2024-01-15T08:24:02;9.00;52.60
3504;DHT22;1766;53.490;10.174;2024-01-15T08:26:04;9.00;52.70
3504;DHT22;1766;53.490;10.174;2024-01-15T08:28:06;9.00;52.50
3504;DHT22;1766;53.490;10.174;2024-01-15T08:30:09;9.00;52.60
3504;DHT22;1766;53.490;10.174;2024-01-15T08:32:11;9.00;52.60
3504;DHT22;1766;53.490;10.174;2024-01-15T08:34:15;9.10;52.50
3504;DHT22;1766;53.490;10.174;2024-01-15T08:36:18;9.00;52.30
3504;DHT22;1766;53.490;10.174;2024-01-15T08:38:19;9.00;52.30
3504;DHT22;1766;53.490;10.174;2024-01-15T08:40:23;9.00;52.20
3504;DHT22;1766;53.490;10.174;2024-01-15T08:42:24;9.00;52.30
3504;DHT22;1766;53.490;10.174;2024-01-15T08:44:26;9.00;52.30
3504;DHT22;1766;53.490;10.174;2024-01-15T08:46:28;9.00;52.30
3504;DHT22;1766;53.490;10.174;2024-01-15T08:48:30;9.00;52.30
3504;DHT22;1766;53.490;10.174;2024-01-15T08:50:32;9.00;52.10
3504;DHT22;1766;53.490;10.174;2024-01-15T08:52:33;9.00;52.10
3504;DHT22;1766;53.490;10.174;2024-01-15T08:54:35;9.00;52.10
3504;DHT22;1766;53.490;10.174;2024-01-15T08:56:38;9.00;52.10
3504;DHT22;1766;53.490;10.174;2024-01-15T08:58:40;8.90;52.00
3504;DHT22;1766;53.490;10.174;2024-01-15T09:00:42;8.90;52.00
3504;DHT22;1766;53.490;10.174;2024-01-15T09:02:44;8.90;52.00
3504;DHT22;1766;53.490;10.174;2024-01-15T09:04:46;8.90;52.00
3504;DHT22;1766;53.490;10.174;2024-01-15T09:06:48;8.80;51.90
3504;DHT22;1766;53.490;10.174;2024-01-15T09:08:49;8.80;51.90
3504;DHT22;1766;53.490;10.174;2024-01-15T09:10:51;8.80;51.80
3504;DHT22;1766;53.490;10.174;2024-01-15T09:12:53;8.70;51.80
3504;DHT22;1766;53.490;10.174;2024-01-15T09:14:55;8.70;51.90
3504;DHT22;1766;53.490;10.174;2024-01-15T09:16:57;8.70;51.90
3504;DHT22;1766;53.490;10.174;2024-01-15T09:18:58;8.70;52.00
3504;DHT22;1766;53.490;10.174;2024-01-15T09:21:00;8.60;51.80
3504;DHT22;1766;53.490;10.174;2024-01-15T09:23:02;8.60;51.90
3504;DHT22;1766;53.490;10.174;2024-01-15T09:25:04;8.60;52.00
3504;DHT22;1766;53.490;10.174;2024-01-15T09:27:06;8.60;52.00
3504;DHT22;1766;53.490;10.174;2024-01-15T09:29:09;8.60;52.00
3504;DHT22;1766;53.490;10.174;2024-01-15T09:31:11;8.60;52.00
3504;DHT22;1766;53.490;10.174;2024-01-15T09:33:13;8.50;51.90
3504;DHT22;1766;53.490;10.174;2024-01-15T09:35:14;8.50;52.00
3504;DHT22;1766;53.490;10.174;2024-01-15T09:37:16;8.50;52.00
3504;DHT22;1766;53.490;10.174;2024-01-15T09:39:18;8.50;52.00
3504;DHT22;1766;53.490;10.174;2024-01-15T09:41:20;8.50;52.10
3504;DHT22;1766;53.490;10.174;2024-01-15T09:43:22;8.50;52.20
3504;DHT22;1766;53.490;10.174;2024-01-15T09:45:26;8.50;52.20
3504;DHT22;1766;53.490;10.174;2024-01-15T09:47:28;8.50;52.10
3504;DHT22;1766;53.490;10.174;2024-01-15T09:49:30;8.50;52.10
3504;DHT22;1766;53.490;10.174;2024-01-15T09:51:32;8.50;52.10
3504;DHT22;1766;53.490;10.174;2024-01-15T09:53:33;8.40;52.00
3504;DHT22;1766;53.490;10.174;2024-01-15T09:55:36;8.30;52.00
3504;DHT22;1766;53.490;10.174;2024-01-15T09:57:39;8.30;52.00
3504;DHT22;1766;53.490;10.174;2024-01-15T09:59:42;8.30;52.10
3504;DHT22;1766;53.490;10.174;2024-01-15T10:01:47;8.20;52.20
3504;DHT22;1766;53.490;10.174;2024-01-15T10:03:51;8.20;52.30
3504;DHT22;1766;53.490;10.174;2024-01-15T10:05:54;8.20;52.20
3504;DHT22;1766;53.490;10.174;2024-01-15T10:07:57;8.20;52.30
3504;DHT22;1766;53.490;10.174;2024-01-15T10:09:59;8.20;52.30
3504;DHT22;1766;53.490;10.174;2024-01-15T10:12:01;8.20;52.30
3504;DHT22;1766;53.490;10.174;2024-01-15T10:14:04;8.20;52.40
3504;DHT22;1766;53.490;10.174;2024-01-15T10:16:06;8.20;52.40
3504;DHT22;1766;53.490;10.174;2024-01-15T10:18:10;8.30;52.40
3504;DHT22;1766;53.490;10.174;2024-01-15T10:20:12;8.30;52.40
3504;DHT22;1766;53.490;10.174;2024-01-15T10:22:14;8.30;52.30
3504;DHT22;1766;53.490;10.174;2024-01-15T10:24:17;8.30;52.30
3504;DHT22;1766;53.490;10.174;2024-01-15T10:26:24;8.20;52.30
3504;DHT22;1766;53.490;10.174;2024-01-15T10:28:26;8.30;52.50
3504;DHT22;1766;53.490;10.174;2024-01-15T10:30:29;8.30;52.50
3504;DHT22;1766;53.490;10.174;2024-01-15T10:32:32;8.30;52.50
3504;DHT22;1766;53.490;10.174;2024-01-15T10:34:37;8.30;52.40
3504;DHT22;1766;53.490;10.174;2024-01-15T10:36:41;8.30;52.50
3504;DHT22;1766;53.490;10.174;2024-01-15T10:38:43;8.30;52.40
3504;DHT22;1766;53.490;10.174;2024-01-15T10:40:45;8.30;52.50
3504;DHT22;1766;53.490;10.174;2024-01-15T10:42:47;8.30;52.50
3504;DHT22;1766;53.490;10.174;2024-01-15T10:44:48;8.30;52.50
3504;DHT22;1766;53.490;10.174;2024-01-15T10:46:50;8.30;52.50
3504;DHT22;1766;53.490;10.174;2024-01-15T10:48:53;8.40;52.70
3504;DHT22;1766;53.490;10.174;2024-01-15T10:50:57;8.40;52.70
3504;DHT22;1766;53.490;10.174;2024-01-15T10:52:59;8.50;52.80
3504;DHT22;1766;53.490;10.174;2024-01-15T10:55:03;8.50;52.80
3504;DHT22;1766;53.490;10.174;2024-01-15T10:57:04;8.50;52.80
3504;DHT22;1766;53.490;10.174;2024-01-15T10:59:08;8.60;52.80
3504;DHT22;1766;53.490;10.174;2024-01-15T11:01:12;8.60;52.70
3504;DHT22;1766;53.490;10.174;2024-01-15T11:03:14;8.60;52.90
3504;DHT22;1766;53.490;10.174;2024-01-15T11:05:17;8.60;52.60
3504;DHT22;1766;53.490;10.174;2024-01-15T11:07:24;8.60;52.60
3504;DHT22;1766;53.490;10.174;2024-01-15T11:09:26;8.60;52.70
3504;DHT22;1766;53.490;10.174;2024-01-15T11:11:28;8.60;52.70
3504;DHT22;1766;53.490;10.174;2024-01-15T11:13:40;8.70;52.70
3504;DHT22;1766;53.490;10.174;2024-01-15T11:15:55;8.60;52.70
3504;DHT22;1766;53.490;10.174;2024-01-15T11:17:59;8.70;52.90
3504;DHT22;1766;53.490;10.174;2024-01-15T11:20:06;8.60;52.80
3504;DHT22;1766;53.490;10.174;2024-01-15T11:22:08;8.60;53.20
3504;DHT22;1766;53.490;10.174;2024-01-15T11:24:33;8.50;52.60
3504;DHT22;1766;53.490;10.174;2024-01-15T11:26:38;8.50;52.70
3504;DHT22;1766;53.490;10.174;2024-01-15T11:28:48;8.40;52.70
3504;DHT22;1766;53.490;10.174;2024-01-15T11:30:50;8.40;52.70
3504;DHT22;1766;53.490;10.174;2024-01-15T11:32:52;8.40;52.60
3504;DHT22;1766;53.490;10.174;2024-01-15T11:34:56;8.30;52.60
3504;DHT22;1766;53.490;10.174;2024-01-15T11:37:01;8.30;52.80
3504;DHT22;1766;53.490;10.174;2024-01-15T11:41:44;8.30;52.90
3504;DHT22;1766;53.490;10.174;2024-01-15T11:43:46;8.30;52.80
3504;DHT22;1766;53.490;10.174;2024-01-15T11:45:52;8.30;52.70
3504;DHT22;1766;53.490;10.174;2024-01-15T11:48:10;8.30;52.70
3504;DHT22;1766;53.490;10.174;2024-01-15T11:50:13;8.30;52.90
3504;DHT22;1766;53.490;10.174;2024-01-15T11:52:18;8.30;53.00
3504;DHT22;1766;53.490;10.174;2024-01-15T11:54:23;8.30;53.10
3504;DHT22;1766;53.490;10.174;2024-01-15T11:56:27;8.30;53.10
3504;DHT22;1766;53.490;10.174;2024-01-15T11:58:29;8.40;53.00
3504;DHT22;1766;53.490;10.174;2024-01-15T12:00:31;8.40;53.00
3504;DHT22;1766;53.490;10.174;2024-01-15T12:02:33;8.40;52.90
3504;DHT22;1766;53.490;10.174;2024-01-15T12:04:35;8.30;52.90
3504;DHT22;1766;53.490;10.174;2024-01-15T12:06:37;8.30;53.00
3504;DHT22;1766;53.490;10.174;2024-01-15T12:08:38;8.40;53.10
3504;DHT22;1766;53.490;10.174;2024-01-15T12:10:41;8.40;53.20
3504;DHT22;1766;53.490;10.174;2024-01-15T12:12:53;8.40;53.20
3504;DHT22;1766;53.490;10.174;2024-01-15T12:14:59;8.50;53.40
3504;DHT22;1766;53.490;10.174;2024-01-15T12:17:01;8.50;53.30
3504;DHT22;1766;53.490;10.174;2024-01-15T12:19:03;8.60;53.40
3504;DHT22;1766;53.490;10.174;2024-01-15T12:21:05;8.60;53.40
3504;DHT22;1766;53.490;10.174;2024-01-15T12:23:07;8.60;53.20
3504;DHT22;1766;53.490;10.174;2024-01-15T12:25:08;8.70;53.30
3504;DHT22;1766;53.490;10.174;2024-01-15T12:27:10;8.70;53.20
3504;DHT22;1766;53.490;10.174;2024-01-15T12:29:13;8.60;53.20
3504;DHT22;1766;53.490;10.174;2024-01-15T12:31:15;8.60;53.20
3504;DHT22;1766;53.490;10.174;2024-01-15T12:33:17;8.70;53.30
3504;DHT22;1766;53.490;10.174;2024-01-15T12:35:23;8.60;53.20
3504;DHT22;1766;53.490;10.174;2024-01-15T12:37:26;8.60;53.30
3504;DHT22;1766;53.490;10.174;2024-01-15T12:39:28;8.60;53.30
3504;DHT22;1766;53.490;10.174;2024-01-15T12:41:29;8.60;53.30
3504;DHT22;1766;53.490;10.174;2024-01-15T12:43:31;8.70;53.40
3504;DHT22;1766;53.490;10.174;2024-01-15T12:45:34;8.70;53.40
3504;DHT22;1766;53.490;10.174;2024-01-15T12:47:38;8.70;53.50
3504;DHT22;1766;53.490;10.174;2024-01-15T12:49:39;8.70;53.40
3504;DHT22;1766;53.490;10.174;2024-01-15T12:51:41;8.70;53.40
3504;DHT22;1766;53.490;10.174;2024-01-15T12:53:44;8.70;53.40
3504;DHT22;1766;53.490;10.174;2024-01-15T12:55:45;8.70;53.40
3504;DHT22;1766;53.490;10.174;2024-01-15T12:57:47;8.70;53.40
3504;DHT22;1766;53.490;10.174;2024-01-15T12:59:50;8.70;53.40
3504;DHT22;1766;53.490;10.174;2024-01-15T13:01:52;8.70;53.30
3504;DHT22;1766;53.490;10.174;2024-01-15T13:03:55;8.60;53.30
3504;DHT22;1766;53.490;10.174;2024-01-15T13:05:57;8.60;53.30
3504;DHT22;1766;53.490;10.174;2024-01-15T13:07:59;8.60;53.40
3504;DHT22;1766;53.490;10.174;2024-01-15T13:10:00;8.70;53.40
3504;DHT22;1766;53.490;10.174;2024-01-15T13:12:02;8.70;53.40
3504;DHT22;1766;53.490;10.174;2024-01-15T13:14:04;8.70;53.40
3504;DHT22;1766;53.490;10.174;2024-01-15T13:16:06;8.70;53.30
3504;DHT22;1766;53.490;10.174;2024-01-15T13:18:11;10.10;53.50
3504;DHT22;1766;53.490;10.174;2024-01-15T13:20:13;8.70;53.80
3504;DHT22;1766;53.490;10.174;2024-01-15T13:22:15;8.70;53.30
3504;DHT22;1766;53.490;10.174;2024-01-15T13:24:17;8.70;53.20